Time;durP1;ratioP1;P1;durP2;ratioP2;P2;SDS_P1;SDS_P2;PMS_P1;PMS_P2;Temp;Humidity;BMP_temperature;BMP_pressure;BME280_temperature;BME280_humidity;BME280_pressure;Samples;Min_cycle;Max_cycle;Signal;HPM_P1;HPM_P2
2023/01/31 00:01:11;;;;;;;18.88;4.05;;;;;;;1.92;90.81;99181.56;5037468;28;20813;-72
2023/01/31 00:03:38;;;;;;;16.77;4.57;;;;;;;1.88;90.87;99188.22;5037888;28;20039;-71
2023/01/31 00:06:18;;;;;;;21.63;4.18;;;;;;;1.79;90.94;99178.78;5038712;28;20406;-71
2023/01/31 00:08:46;;;;;;;19.70;4.03;;;;;;;1.94;91.15;99171.66;5036981;28;20029;-70
2023/01/31 00:11:14;;;;;;;16.10;4.00;;;;;;;1.87;91.37;99170.78;5049727;28;20033;-71
2023/01/31 00:13:40;;;;;;;12.45;3.00;;;;;;;1.93;91.00;99172.66;5038512;28;20032;-71
2023/01/31 00:16:07;;;;;;;16.63;3.75;;;;;;;1.85;91.11;99186.75;5020135;28;20083;-71
2023/01/31 00:18:33;;;;;;;10.65;2.78;;;;;;;1.93;91.13;99181.38;5034386;28;20032;-71
2023/01/31 00:21:04;;;;;;;20.10;5.07;;;;;;;2.00;90.91;99176.19;5039167;28;20065;-71
2023/01/31 00:23:30;;;;;;;14.70;3.67;;;;;;;1.98;91.05;99178.19;5044553;28;20043;-70
2023/01/31 00:26:19;;;;;;;17.73;4.00;;;;;;;1.91;91.42;99180.75;5048301;28;20044;-71
2023/01/31 00:28:46;;;;;;;16.17;4.05;;;;;;;2.06;90.93;99175.44;5042536;28;20044;-71
2023/01/31 00:31:12;;;;;;;20.10;4.32;;;;;;;1.99;91.28;99171.91;5045477;28;20055;-71
2023/01/31 00:33:40;;;;;;;9.25;2.50;;;;;;;1.99;91.17;99177.16;5040195;28;20025;-72
2023/01/31 00:36:09;;;;;;;10.10;2.70;;;;;;;1.90;91.09;99180.94;5038614;28;20375;-72
2023/01/31 00:38:35;;;;;;;12.98;3.72;;;;;;;1.99;91.55;99179.81;5038473;28;20670;-72
2023/01/31 00:41:02;;;;;;;26.17;4.03;;;;;;;1.94;91.23;99188.28;5040611;28;20035;-72
2023/01/31 00:43:28;;;;;;;21.20;4.05;;;;;;;2.04;91.18;99193.22;5044541;28;20029;-71
2023/01/31 00:45:53;;;;;;;15.10;2.45;;;;;;;1.97;90.89;99187.91;5047455;28;20071;-71
2023/01/31 00:48:19;;;;;;;20.30;3.65;;;;;;;2.00;91.10;99190.16;5051162;28;20040;-73
2023/01/31 00:50:45;;;;;;;19.75;4.53;;;;;;;1.95;91.02;99213.59;5043154;28;20044;-72
2023/01/31 00:53:10;;;;;;;25.40;5.47;;;;;;;1.93;91.15;99227.94;5045952;28;20090;-72
2023/01/31 00:55:36;;;;;;;13.98;4.78;;;;;;;1.90;92.13;99212.53;5042364;28;20654;-74
2023/01/31 00:58:02;;;;;;;15.88;3.40;;;;;;;1.80;91.74;99212.78;5038593;28;20045;-71
2023/01/31 01:00:29;;;;;;;15.18;3.88;;;;;;;1.90;91.74;99213.31;5036071;28;20030;-72
2023/01/31 01:02:55;;;;;;;19.98;3.72;;;;;;;2.01;91.70;99214.69;5032179;28;20651;-71
2023/01/31 01:05:20;;;;;;;15.77;3.53;;;;;;;2.18;90.80;99224.00;5031207;28;20041;-71
2023/01/31 01:07:46;;;;;;;15.43;3.47;;;;;;;2.13;90.96;99215.81;5023907;28;20551;-71
2023/01/31 01:10:11;;;;;;;10.85;2.55;;;;;;;2.09;91.38;99230.34;5025394;28;20037;-70
2023/01/31 01:12:37;;;;;;;26.70;5.63;;;;;;;2.06;91.45;99228.09;5033570;28;20072;-71
2023/01/31 01:15:03;;;;;;;18.70;2.97;;;;;;;2.19;91.22;99225.59;5028384;28;20037;-71
2023/01/31 01:17:29;;;;;;;8.95;3.47;;;;;;;2.14;90.88;99231.41;5026080;28;20949;-71
2023/01/31 01:19:54;;;;;;;13.38;3.63;;;;;;;2.12;91.75;99229.97;5044629;28;20028;-69
2023/01/31 01:22:21;;;;;;;22.23;3.85;;;;;;;2.04;91.09;99243.25;5039717;28;21510;-71
2023/01/31 01:24:46;;;;;;;20.13;4.57;;;;;;;2.16;90.87;99236.53;5019926;28;20040;-71
2023/01/31 01:27:12;;;;;;;16.60;3.72;;;;;;;2.15;91.21;99240.97;5043921;28;20029;-72
2023/01/31 01:29:38;;;;;;;17.25;3.85;;;;;;;2.14;91.12;99235.91;5047664;28;20113;-72
2023/01/31 01:32:05;;;;;;;8.73;3.55;;;;;;;2.13;90.96;99229.81;5034371;28;20566;-74
2023/01/31 01:34:31;;;;;;;20.40;3.45;;;;;;;2.13;91.09;99234.25;5043748;28;20072;-74
2023/01/31 01:36:56;;;;;;;15.02;3.47;;;;;;;2.15;91.09;99238.34;5049936;28;20613;-70
2023/01/31 01:39:22;;;;;;;23.23;4.70;;;;;;;2.08;90.59;99241.88;5048197;28;20039;-71
2023/01/31 01:41:49;;;;;;;20.73;3.88;;;;;;;2.24;90.85;99247.75;5032655;28;20035;-71
2023/01/31 01:44:48;;;;;;;30.45;4.63;;;;;;;2.13;90.89;99242.16;5035421;28;20056;-71
2023/01/31 01:47:24;;;;;;;22.48;4.60;;;;;;;2.18;90.84;99245.06;5032567;28;20044;-70
2023/01/31 01:49:55;;;;;;;18.67;4.18;;;;;;;2.17;90.98;99260.03;5029021;28;20048;-69
2023/01/31 01:52:23;;;;;;;29.33;5.13;;;;;;;2.17;90.71;99251.31;5027026;28;20048;-70
2023/01/31 01:54:56;;;;;;;19.15;4.28;;;;;;;2.25;90.31;99251.19;5028477;28;20523;-70
2023/01/31 01:57:28;;;;;;;22.55;6.22;;;;;;;2.24;90.30;99257.47;5038607;28;20025;-70
2023/01/31 02:00:21;;;;;;;13.65;3.25;;;;;;;2.13;90.59;99268.47;5043569;28;20119;-70
2023/01/31 02:02:49;;;;;;;10.98;3.50;;;;;;;2.21;90.70;99266.56;5034311;28;20072;-71
2023/01/31 02:05:19;;;;;;;17.70;3.67;;;;;;;2.23;90.66;99266.34;5042464;28;20489;-70
2023/01/31 02:07:44;;;;;;;23.83;3.67;;;;;;;2.19;90.66;99270.38;5039616;28;20071;-72
2023/01/31 02:10:16;;;;;;;16.35;4.32;;;;;;;2.17;90.76;99280.25;5035593;28;20111;-71
2023/01/31 02:12:41;;;;;;;21.60;4.78;;;;;;;2.19;90.35;99278.25;5038005;28;20064;-70
2023/01/31 02:15:07;;;;;;;10.13;3.08;;;;;;;2.22;90.36;99267.38;5029345;28;20116;-72
2023/01/31 02:17:33;;;;;;;16.65;4.55;;;;;;;2.13;90.68;99271.09;5035924;28;20029;-71
2023/01/31 02:20:17;;;;;;;15.77;4.18;;;;;;;2.03;90.78;99278.50;5044182;28;20508;-74
2023/01/31 02:23:23;;;;;;;18.23;4.35;;;;;;;2.24;90.55;99282.00;5043441;28;20496;-71
2023/01/31 02:26:22;;;;;;;20.05;4.05;;;;;;;2.15;90.54;99277.00;5041027;28;20041;-72
2023/01/31 02:28:57;;;;;;;17.27;4.35;;;;;;;2.27;90.41;99291.34;5039959;28;20031;-71
2023/01/31 02:31:34;;;;;;;18.38;3.63;;;;;;;2.14;90.61;99293.81;5038398;28;20052;-72
2023/01/31 02:34:07;;;;;;;18.33;4.28;;;;;;;2.24;90.36;99296.97;5040768;28;20024;-72
2023/01/31 02:36:50;;;;;;;13.48;4.60;;;;;;;2.12;90.08;99301.06;5039904;28;20024;-71
2023/01/31 02:39:40;;;;;;;17.17;3.47;;;;;;;2.22;90.45;99297.16;5038673;28;20029;-71
2023/01/31 02:42:19;;;;;;;19.00;4.03;;;;;;;2.29;90.03;99303.31;5039543;28;20453;-71
2023/01/31 02:44:59;;;;;;;20.90;6.68;;;;;;;2.22;90.53;99298.97;5039505;28;20033;-72
2023/01/31 02:47:30;;;;;;;12.07;3.80;;;;;;;2.28;90.01;99304.31;5041632;28;20057;-71
2023/01/31 02:50:04;;;;;;;29.27;5.95;;;;;;;2.19;90.54;99292.25;5041573;28;20037;-71
2023/01/31 02:52:45;;;;;;;16.73;3.30;;;;;;;2.27;89.83;99293.97;5041011;28;20134;-72
2023/01/31 02:58:10;;;;;;;20.58;4.18;;;;;;;2.21;90.48;99313.94;5047733;28;20077;-72
2023/01/31 03:00:39;;;;;;;19.20;3.53;;;;;;;2.13;90.99;99307.97;5049769;28;20041;-70
2023/01/31 03:03:07;;;;;;;30.88;4.25;;;;;;;2.18;90.82;99306.41;5044699;28;20125;-71
2023/01/31 03:05:33;;;;;;;16.73;3.65;;;;;;;2.16;90.78;99304.97;5041343;28;20957;-70
2023/01/31 03:08:03;;;;;;;16.08;3.33;;;;;;;2.16;90.79;99305.78;5044603;28;20119;-69
2023/01/31 03:11:03;;;;;;;14.77;3.55;;;;;;;2.13;90.93;99305.34;5048428;28;20032;-71
2023/01/31 03:13:42;;;;;;;27.60;5.13;;;;;;;2.14;90.61;99309.63;5039352;28;20789;-70
2023/01/31 03:19:19;;;;;;;24.92;4.80;;;;;;;2.20;90.34;99319.41;5041438;28;20063;-71
2023/01/31 03:22:03;;;;;;;14.38;3.67;;;;;;;2.17;90.47;99315.31;5040490;28;20029;-70
2023/01/31 03:24:29;;;;;;;25.00;3.85;;;;;;;2.08;90.69;99326.13;5038561;28;20033;-70
2023/01/31 03:26:57;;;;;;;21.02;3.83;;;;;;;2.12;91.07;99322.13;5048518;28;20039;-71
2023/01/31 03:29:26;;;;;;;14.65;4.28;;;;;;;2.04;90.73;99322.22;5043703;28;20094;-70
2023/01/31 03:31:57;;;;;;;13.18;5.90;;;;;;;2.09;90.28;99325.13;5044779;28;20037;-70
2023/01/31 03:34:25;;;;;;;11.98;3.95;;;;;;;2.20;90.43;99316.78;5048860;28;20484;-70
2023/01/31 03:36:50;;;;;;;17.50;5.40;;;;;;;2.08;90.46;99332.22;5045036;28;20087;-70
2023/01/31 03:39:37;;;;;;;16.40;6.53;;;;;;;2.15;89.90;99335.75;5049986;28;20021;-70
2023/01/31 03:42:12;;;;;;;19.77;5.07;;;;;;;2.14;90.04;99320.16;5039266;28;20052;-70
2023/01/31 03:45:03;;;;;;;14.25;2.92;;;;;;;2.22;89.89;99322.66;5044229;28;20033;-70
2023/01/31 03:47:42;;;;;;;11.95;3.42;;;;;;;2.18;90.11;99310.88;5040562;28;20021;-70
2023/01/31 03:50:14;;;;;;;25.23;3.85;;;;;;;2.17;89.99;99309.22;5046786;28;20025;-70
2023/01/31 03:52:48;;;;;;;16.05;5.25;;;;;;;2.17;90.06;99310.06;5044006;28;20034;-71
2023/01/31 03:55:17;;;;;;;14.18;3.28;;;;;;;2.14;90.08;99310.41;5042644;28;20036;-70
2023/01/31 03:57:48;;;;;;;24.90;4.90;;;;;;;2.07;90.43;99306.91;5040451;28;20021;-70
2023/01/31 04:00:17;;;;;;;20.70;5.18;;;;;;;2.18;90.05;99316.13;5041291;28;20052;-69
2023/01/31 04:02:43;;;;;;;12.98;3.90;;;;;;;2.12;90.03;99312.41;5042578;28;21015;-70
2023/01/31 04:05:20;;;;;;;15.88;3.75;;;;;;;2.22;89.94;99306.88;5043982;28;20043;-70
2023/01/31 04:07:45;;;;;;;10.57;3.92;;;;;;;2.23;90.00;99309.31;5036791;28;20059;-70
2023/01/31 04:10:18;;;;;;;17.75;3.80;;;;;;;2.19;89.80;99301.97;5035768;28;20032;-70
2023/01/31 04:12:45;;;;;;;15.43;5.90;;;;;;;2.23;89.85;99298.78;5038982;28;20543;-71
2023/01/31 04:15:11;;;;;;;19.67;5.57;;;;;;;2.18;89.82;99295.06;5044345;28;20032;-72
2023/01/31 04:17:37;;;;;;;17.17;3.83;;;;;;;2.20;89.93;99293.91;5042597;28;20025;-71
2023/01/31 04:20:05;;;;;;;19.67;4.45;;;;;;;2.15;89.86;99298.06;5041440;28;20074;-69
2023/01/31 04:22:30;;;;;;;18.85;5.05;;;;;;;1.92;89.65;99300.78;5043606;28;20025;-70
2023/01/31 04:24:56;;;;;;;14.57;4.13;;;;;;;2.09;90.12;99301.44;5045495;28;20029;-70
2023/01/31 04:27:21;;;;;;;16.48;4.63;;;;;;;2.14;90.24;99304.34;5042217;28;20106;-71
2023/01/31 04:29:47;;;;;;;14.07;4.75;;;;;;;2.09;90.03;99315.44;5039046;28;20025;-70
2023/01/31 04:32:12;;;;;;;20.75;5.50;;;;;;;2.08;89.71;99308.50;5040612;28;20036;-70
2023/01/31 04:34:37;;;;;;;17.15;4.25;;;;;;;2.03;90.19;99302.19;5042751;28;20029;-69
2023/01/31 04:37:04;;;;;;;16.98;5.35;;;;;;;2.02;90.43;99300.53;5044308;28;20036;-70
2023/01/31 04:39:29;;;;;;;22.35;5.88;;;;;;;2.02;90.11;99308.44;5038124;28;20119;-71
2023/01/31 04:41:55;;;;;;;23.60;5.82;;;;;;;2.15;90.26;99305.97;5036071;28;20148;-71
2023/01/31 04:44:20;;;;;;;15.05;6.30;;;;;;;2.11;90.12;99309.97;5043550;28;20036;-70
2023/01/31 04:46:45;;;;;;;16.08;4.88;;;;;;;2.09;90.08;99301.44;5039096;28;20456;-71
2023/01/31 04:49:12;;;;;;;20.88;4.88;;;;;;;2.00;90.91;99299.91;5043998;28;20029;-71
2023/01/31 04:51:37;;;;;;;24.27;5.20;;;;;;;2.11;90.44;99294.16;5042753;28;20024;-72
2023/01/31 04:54:03;;;;;;;18.50;4.78;;;;;;;2.11;89.68;99304.69;5037836;28;20381;-71
2023/01/31 04:56:30;;;;;;;22.55;6.38;;;;;;;2.22;89.96;99309.50;5044605;28;20033;-70
2023/01/31 04:58:56;;;;;;;21.38;4.40;;;;;;;2.16;89.96;99289.19;5037709;28;20044;-72
2023/01/31 05:01:21;;;;;;;16.25;4.05;;;;;;;2.23;89.85;99298.78;5039819;28;20041;-71
2023/01/31 05:03:48;;;;;;;13.38;4.35;;;;;;;2.28;89.87;99295.59;5042287;28;20033;-72
2023/01/31 05:06:14;;;;;;;19.25;4.97;;;;;;;2.23;89.50;99297.94;5041337;28;20025;-71
2023/01/31 05:08:39;;;;;;;10.88;4.30;;;;;;;2.19;90.28;99296.69;5038610;28;20047;-72
2023/01/31 05:11:05;;;;;;;19.25;6.25;;;;;;;2.26;89.50;99295.78;5040515;28;20040;-71
2023/01/31 05:13:31;;;;;;;10.18;3.50;;;;;;;2.24;89.36;99289.06;5042174;28;20021;-72
2023/01/31 05:15:58;;;;;;;25.55;4.75;;;;;;;2.13;89.16;99287.72;5043926;28;20040;-71
2023/01/31 05:18:24;;;;;;;15.85;4.13;;;;;;;2.19;89.91;99286.16;5025578;28;20124;-71
2023/01/31 05:20:50;;;;;;;18.90;6.53;;;;;;;2.12;89.78;99286.09;5040318;28;20035;-72
2023/01/31 05:23:16;;;;;;;22.27;5.50;;;;;;;2.12;89.93;99287.88;5041626;28;20049;-70
2023/01/31 05:25:42;;;;;;;19.48;5.45;;;;;;;2.18;89.66;99292.44;5043161;28;20040;-69
2023/01/31 05:28:07;;;;;;;19.05;5.03;;;;;;;2.26;89.69;99294.97;5040021;28;20049;-72
2023/01/31 05:30:33;;;;;;;15.82;4.68;;;;;;;2.36;89.01;99295.47;5042154;28;20044;-72
2023/01/31 05:32:58;;;;;;;20.08;4.82;;;;;;;2.25;89.19;99303.84;5022903;28;20087;-73
2023/01/31 05:35:23;;;;;;;11.98;4.25;;;;;;;2.26;89.36;99297.59;5040845;28;20037;-72
2023/01/31 05:37:49;;;;;;;18.25;4.57;;;;;;;2.33;89.10;99295.03;5043474;28;20037;-72
2023/01/31 05:40:16;;;;;;;14.68;4.05;;;;;;;2.25;89.60;99301.22;5048877;28;20098;-74
2023/01/31 05:42:42;;;;;;;14.30;3.40;;;;;;;2.21;89.17;99289.44;5039613;28;20060;-72
2023/01/31 05:45:09;;;;;;;15.52;5.38;;;;;;;2.19;89.32;99286.16;5041304;28;20477;-72
2023/01/31 05:47:34;;;;;;;24.38;4.85;;;;;;;2.17;88.93;99281.09;5044780;28;20043;-69
2023/01/31 05:49:59;;;;;;;19.25;4.18;;;;;;;2.21;88.28;99284.97;5038347;28;20030;-70
2023/01/31 05:52:25;;;;;;;17.65;4.97;;;;;;;2.20;87.89;99282.53;5039483;28;20047;-70
2023/01/31 05:54:50;;;;;;;22.23;6.38;;;;;;;2.15;87.68;99280.47;5040147;28;20056;-70
2023/01/31 05:57:15;;;;;;;14.40;3.30;;;;;;;2.20;88.09;99274.66;5043001;28;20068;-70
2023/01/31 05:59:41;;;;;;;17.92;3.50;;;;;;;2.09;88.33;99283.84;5045429;28;20060;-69
2023/01/31 06:02:07;;;;;;;27.73;4.00;;;;;;;2.10;87.95;99293.34;5041865;28;20575;-71
2023/01/31 06:04:33;;;;;;;17.88;4.60;;;;;;;2.11;88.24;99283.63;5040438;28;20151;-72
2023/01/31 06:06:58;;;;;;;13.98;3.75;;;;;;;2.16;88.21;99281.28;5045754;28;20131;-72
2023/01/31 06:09:24;;;;;;;13.43;3.78;;;;;;;2.09;88.23;99277.75;5044853;28;20476;-72
2023/01/31 06:11:49;;;;;;;17.40;3.92;;;;;;;2.23;87.71;99276.88;5045278;28;20039;-73
2023/01/31 06:14:15;;;;;;;15.82;6.57;;;;;;;2.22;87.58;99285.81;5045650;28;20043;-71
2023/01/31 06:16:40;;;;;;;15.50;4.80;;;;;;;2.04;87.64;99266.94;5043884;28;20060;-71
2023/01/31 06:19:05;;;;;;;15.98;3.70;;;;;;;2.18;87.78;99279.28;5049043;28;20029;-72
2023/01/31 06:21:31;;;;;;;24.02;3.85;;;;;;;2.21;88.15;99284.97;5046053;28;20056;-71
2023/01/31 06:23:56;;;;;;;17.63;3.58;;;;;;;2.29;86.85;99281.44;5044236;28;20060;-72
2023/01/31 06:26:22;;;;;;;19.92;3.50;;;;;;;2.14;87.59;99286.72;5045666;28;20043;-71
2023/01/31 06:28:48;;;;;;;24.98;4.18;;;;;;;1.98;87.84;99276.41;5042411;28;20611;-70
2023/01/31 06:31:13;;;;;;;17.75;4.13;;;;;;;2.23;87.15;99277.72;5044463;28;20033;-70
2023/01/31 06:33:38;;;;;;;10.52;3.85;;;;;;;2.04;87.77;99282.72;5042539;28;20481;-71
2023/01/31 06:36:04;;;;;;;16.95;4.15;;;;;;;2.24;86.49;99276.72;5045744;28;20033;-72
2023/01/31 06:38:30;;;;;;;21.02;4.30;;;;;;;2.15;86.97;99263.84;5042709;28;20036;-72
2023/01/31 06:40:55;;;;;;;12.43;3.08;;;;;;;2.14;86.91;99270.91;5041170;28;20378;-69
2023/01/31 06:43:21;;;;;;;15.75;3.22;;;;;;;2.19;86.56;99278.25;5009344;28;20033;-70
2023/01/31 06:45:48;;;;;;;17.23;3.22;;;;;;;2.03;86.56;99279.28;5038809;28;20030;-71
2023/01/31 06:48:14;;;;;;;22.67;5.45;;;;;;;2.10;86.41;99272.28;5043524;28;20052;-70
2023/01/31 06:50:39;;;;;;;27.88;4.50;;;;;;;2.08;86.69;99273.47;5042912;28;20048;-69
2023/01/31 06:53:05;;;;;;;13.40;3.03;;;;;;;2.15;86.27;99277.00;5041230;28;20075;-69
2023/01/31 06:55:30;;;;;;;12.32;2.38;;;;;;;2.18;85.87;99276.66;5043655;28;20071;-69
2023/01/31 06:57:55;;;;;;;20.00;3.95;;;;;;;2.28;85.34;99285.06;5041562;28;20048;-70
2023/01/31 07:00:23;;;;;;;14.73;3.67;;;;;;;2.04;86.20;99267.75;5040657;28;20072;-69
2023/01/31 07:02:49;;;;;;;12.63;3.40;;;;;;;2.10;86.17;99261.75;5044105;28;20814;-69
2023/01/31 07:05:16;;;;;;;21.83;3.95;;;;;;;2.19;86.24;99271.19;5050484;28;20052;-68
2023/01/31 07:07:41;;;;;;;15.55;3.30;;;;;;;2.14;86.18;99272.75;5043441;28;20039;-69
2023/01/31 07:10:07;;;;;;;14.35;3.88;;;;;;;2.14;85.88;99267.50;5041991;28;20036;-70
2023/01/31 07:12:32;;;;;;;20.77;5.55;;;;;;;2.17;85.83;99254.75;5025451;28;20063;-68
2023/01/31 07:14:58;;;;;;;12.85;3.72;;;;;;;2.24;85.92;99257.47;5041692;28;20564;-69
2023/01/31 07:17:23;;;;;;;14.98;3.13;;;;;;;2.21;85.44;99258.66;5040799;28;20120;-69
2023/01/31 07:19:48;;;;;;;19.52;3.45;;;;;;;2.15;85.65;99256.75;5040008;28;20496;-70
2023/01/31 07:22:14;;;;;;;12.85;3.60;;;;;;;2.23;85.36;99253.19;5046181;28;20438;-69
2023/01/31 07:24:39;;;;;;;16.98;3.78;;;;;;;2.07;85.61;99254.25;5042415;28;20037;-69
2023/01/31 07:27:04;;;;;;;10.60;3.28;;;;;;;2.10;85.82;99266.19;5042010;28;20036;-69
2023/01/31 07:29:30;;;;;;;15.65;3.97;;;;;;;2.08;85.73;99257.66;5044437;28;20028;-69
2023/01/31 07:31:55;;;;;;;21.50;4.30;;;;;;;2.13;84.70;99263.22;5043835;28;20398;-68
2023/01/31 07:34:21;;;;;;;18.77;5.60;;;;;;;2.13;84.98;99261.41;5041803;28;20060;-69
2023/01/31 07:36:50;;;;;;;12.70;3.63;;;;;;;2.19;85.70;99260.66;5044568;28;20024;-69
2023/01/31 07:39:16;;;;;;;17.67;4.40;;;;;;;2.13;85.14;99256.13;5034149;28;20131;-71
2023/01/31 07:41:41;;;;;;;20.55;3.72;;;;;;;2.14;85.39;99246.44;5043284;28;20024;-68
2023/01/31 07:44:10;;;;;;;8.90;3.13;;;;;;;2.11;85.60;99241.50;5042056;28;20579;-69
2023/01/31 07:46:36;;;;;;;15.35;4.20;;;;;;;2.12;85.41;99245.75;5046201;28;20037;-69
2023/01/31 07:49:02;;;;;;;14.80;3.45;;;;;;;2.12;85.16;99233.44;5043542;28;20037;-68
2023/01/31 07:51:28;;;;;;;17.90;5.47;;;;;;;2.10;85.09;99231.97;5041206;28;20481;-68
2023/01/31 07:53:53;;;;;;;14.75;4.20;;;;;;;2.14;84.61;99230.63;5045293;28;20118;-69
2023/01/31 07:56:20;;;;;;;14.27;4.22;;;;;;;2.15;84.44;99229.63;5046389;28;20374;-68
2023/01/31 07:58:47;;;;;;;20.75;4.63;;;;;;;2.14;85.17;99225.38;5045973;28;20374;-70
2023/01/31 08:04:11;;;;;;;9.40;3.63;;;;;;;2.10;86.13;99229.34;5041594;28;20036;-69
2023/01/31 08:06:39;;;;;;;14.20;5.03;;;;;;;2.11;86.52;99229.19;5039326;28;20064;-69
2023/01/31 08:09:04;;;;;;;17.30;3.75;;;;;;;2.19;86.00;99221.16;5037641;28;20028;-69
2023/01/31 08:11:29;;;;;;;19.33;4.20;;;;;;;2.23;85.79;99214.50;5033921;28;20041;-69
2023/01/31 08:13:55;;;;;;;12.68;4.03;;;;;;;2.31;85.89;99205.69;5021196;28;20032;-68
2023/01/31 08:16:21;;;;;;;11.60;4.90;;;;;;;2.25;85.67;99206.41;5039991;28;20045;-69
2023/01/31 08:18:50;;;;;;;18.45;7.28;;;;;;;2.35;85.25;99199.03;5044284;28;20037;-69
2023/01/31 08:21:16;;;;;;;18.15;4.57;;;;;;;2.36;85.55;99195.41;5042267;28;20124;-68
2023/01/31 08:23:42;;;;;;;14.88;4.70;;;;;;;2.26;85.79;99193.09;5041381;28;20033;-72
2023/01/31 08:26:14;;;;;;;6.30;3.88;;;;;;;2.23;86.19;99192.63;5047633;28;20047;-69
2023/01/31 08:28:41;;;;;;;12.70;4.32;;;;;;;2.15;86.39;99185.69;5043214;28;20033;-69
2023/01/31 08:31:12;;;;;;;17.27;5.20;;;;;;;2.27;86.36;99193.91;5039398;28;20028;-69
2023/01/31 08:33:37;;;;;;;11.88;4.03;;;;;;;2.27;86.63;99199.19;5044571;28;20029;-70
2023/01/31 08:36:18;;;;;;;15.55;4.40;;;;;;;2.29;86.10;99184.00;5031505;28;20052;-70
2023/01/31 08:38:43;;;;;;;8.27;4.35;;;;;;;2.36;86.49;99184.06;5036383;28;20063;-68
2023/01/31 08:41:12;;;;;;;16.83;5.20;;;;;;;2.34;86.34;99172.91;5026766;28;20082;-69
2023/01/31 08:43:37;;;;;;;11.32;4.32;;;;;;;2.38;86.25;99171.53;5037727;28;20499;-69
2023/01/31 08:46:04;;;;;;;9.63;4.45;;;;;;;2.43;85.85;99185.75;5038459;28;20409;-70
2023/01/31 08:48:34;;;;;;;11.82;4.22;;;;;;;2.45;85.96;99175.00;5038872;28;20432;-70
2023/01/31 08:51:01;;;;;;;16.77;4.47;;;;;;;2.42;86.13;99175.41;5041117;28;20432;-70
2023/01/31 08:53:26;;;;;;;19.95;5.40;;;;;;;2.47;86.11;99170.41;5039272;28;20066;-69
2023/01/31 08:55:57;;;;;;;12.18;4.65;;;;;;;2.38;86.77;99171.53;5040927;28;20042;-70
2023/01/31 08:58:22;;;;;;;9.18;4.03;;;;;;;2.48;86.06;99170.19;5036050;28;20052;-69
2023/01/31 09:00:47;;;;;;;15.35;4.65;;;;;;;2.46;86.13;99161.69;5040696;28;20056;-69
2023/01/31 09:03:17;;;;;;;15.43;5.07;;;;;;;2.42;86.61;99160.44;5041086;28;20417;-69
2023/01/31 09:05:43;;;;;;;18.60;3.90;;;;;;;2.43;86.40;99172.56;5037865;28;20398;-69
2023/01/31 09:08:09;;;;;;;17.80;5.97;;;;;;;2.38;86.62;99158.34;5044325;28;20025;-70
2023/01/31 09:10:35;;;;;;;21.60;5.35;;;;;;;2.28;87.11;99153.38;5046819;28;20116;-70
2023/01/31 09:13:00;;;;;;;12.82;5.70;;;;;;;2.24;87.19;99152.13;5042479;28;20179;-69
2023/01/31 09:15:25;;;;;;;10.02;4.78;;;;;;;2.40;86.86;99153.72;5044018;28;20311;-70
2023/01/31 09:17:51;;;;;;;13.90;4.50;;;;;;;2.37;86.93;99159.34;5043563;28;20481;-70
2023/01/31 09:20:17;;;;;;;13.45;5.47;;;;;;;2.27;87.44;99154.41;5045159;28;20550;-70
2023/01/31 09:22:42;;;;;;;16.85;6.28;;;;;;;2.35;87.39;99159.53;5041833;28;20525;-69
2023/01/31 09:25:08;;;;;;;16.70;5.80;;;;;;;2.52;86.86;99139.84;5047170;28;20037;-69
2023/01/31 09:27:36;;;;;;;15.73;5.10;;;;;;;2.56;86.29;99142.91;5041972;28;20112;-69
2023/01/31 09:30:06;;;;;;;17.73;5.85;;;;;;;2.54;86.31;99145.72;5045459;28;20021;-69
2023/01/31 09:32:32;;;;;;;19.23;4.40;;;;;;;2.52;86.71;99141.66;5045306;28;20085;-69
2023/01/31 09:34:58;;;;;;;20.08;6.22;;;;;;;2.55;86.70;99144.75;5044300;28;20429;-69
2023/01/31 09:37:23;;;;;;;18.10;5.45;;;;;;;2.59;86.20;99132.00;5047604;28;20036;-70
2023/01/31 09:39:49;;;;;;;10.00;5.63;;;;;;;2.63;86.75;99128.78;5046376;28;20028;-70
2023/01/31 09:42:20;;;;;;;27.33;6.93;;;;;;;2.59;86.73;99116.19;5054070;28;20022;-69
2023/01/31 09:45:01;;;;;;;20.63;6.18;;;;;;;2.72;86.44;99114.47;5047744;28;20140;-70
2023/01/31 09:47:35;;;;;;;20.33;6.82;;;;;;;2.68;86.76;99125.59;5041626;28;20592;-70
2023/01/31 09:50:26;;;;;;;27.55;6.75;;;;;;;2.69;87.15;99117.47;5042323;28;20044;-70
2023/01/31 09:52:52;;;;;;;18.88;6.30;;;;;;;2.66;87.21;99122.31;5046976;28;20029;-69
2023/01/31 09:55:25;;;;;;;14.30;5.47;;;;;;;2.77;86.55;99120.00;5035335;28;20037;-70
2023/01/31 09:58:15;;;;;;;18.75;5.90;;;;;;;2.81;86.86;99123.88;5048784;28;20178;-69
2023/01/31 10:00:58;;;;;;;20.33;7.20;;;;;;;2.79;86.97;99127.69;5048951;28;20021;-69
2023/01/31 10:03:47;;;;;;;27.77;6.93;;;;;;;2.81;86.60;99115.97;5053166;28;20044;-69
2023/01/31 10:06:27;;;;;;;25.70;6.32;;;;;;;2.80;86.51;99103.78;5044660;28;20040;-70
2023/01/31 10:09:09;;;;;;;25.15;6.68;;;;;;;2.80;86.45;99103.78;5049970;28;20108;-69
2023/01/31 10:11:38;;;;;;;19.35;6.60;;;;;;;2.79;86.29;99098.69;5043665;28;20036;-70
2023/01/31 10:14:22;;;;;;;14.75;5.45;;;;;;;2.77;86.52;99100.72;5042553;28;20060;-69
2023/01/31 10:17:01;;;;;;;17.75;6.60;;;;;;;2.81;86.42;99092.22;5043132;28;20111;-70
2023/01/31 10:19:34;;;;;;;24.27;7.05;;;;;;;2.79;86.84;99082.88;5051762;28;20041;-70
2023/01/31 10:22:06;;;;;;;22.00;5.97;;;;;;;2.85;86.48;99085.56;5047321;28;20071;-70
2023/01/31 10:24:57;;;;;;;16.00;6.13;;;;;;;2.92;86.28;99088.25;5045444;28;20025;-71
2023/01/31 10:27:39;;;;;;;24.55;6.82;;;;;;;2.79;87.06;99086.34;5047160;28;20044;-69
2023/01/31 10:30:14;;;;;;;13.60;5.78;;;;;;;2.93;87.09;99081.94;5048125;28;20017;-70
2023/01/31 10:32:47;;;;;;;19.60;4.80;;;;;;;2.83;87.46;99079.69;5050671;28;20082;-69
2023/01/31 10:35:22;;;;;;;19.88;7.00;;;;;;;2.89;87.77;99075.44;5044861;28;20029;-70
2023/01/31 10:37:58;;;;;;;11.10;5.47;;;;;;;2.96;87.32;99071.84;5045075;28;20031;-69
2023/01/31 10:40:37;;;;;;;18.83;6.28;;;;;;;3.04;87.04;99076.13;5046341;28;20541;-69
2023/01/31 10:43:19;;;;;;;19.63;7.30;;;;;;;2.97;87.52;99065.56;5050124;28;20499;-70
2023/01/31 10:45:45;;;;;;;19.77;6.45;;;;;;;2.95;87.77;99062.28;5043200;28;20029;-69
2023/01/31 10:48:24;;;;;;;23.98;5.80;;;;;;;2.89;87.68;99049.91;5043182;28;20571;-68
2023/01/31 10:51:23;;;;;;;16.52;5.63;;;;;;;2.95;87.84;99057.03;5049561;28;20032;-70
2023/01/31 10:53:54;;;;;;;16.45;6.75;;;;;;;2.90;88.54;99059.44;5044499;28;20053;-68
2023/01/31 10:56:31;;;;;;;18.42;6.93;;;;;;;2.92;88.45;99067.97;5049655;28;20394;-69
2023/01/31 10:58:58;;;;;;;22.70;6.55;;;;;;;2.92;88.34;99065.34;5044834;28;20035;-70
2023/01/31 11:01:23;;;;;;;24.00;7.18;;;;;;;2.99;88.24;99055.63;5041901;28;20105;-70
2023/01/31 11:03:51;;;;;;;18.92;7.40;;;;;;;3.05;87.93;99054.03;5041960;28;20493;-69
2023/01/31 11:06:17;;;;;;;26.65;6.97;;;;;;;3.01;88.29;99048.31;5037852;28;20375;-70
2023/01/31 11:08:50;;;;;;;15.63;7.57;;;;;;;3.07;87.69;99045.94;5041486;28;20227;-70
2023/01/31 11:11:19;;;;;;;22.42;7.30;;;;;;;2.99;88.72;99044.28;5049025;28;20028;-70
2023/01/31 11:14:16;;;;;;;18.02;7.25;;;;;;;3.06;88.54;99037.19;5041981;28;20393;-69
2023/01/31 11:16:42;;;;;;;12.98;6.28;;;;;;;3.09;88.74;99028.91;5041415;28;20278;-70
2023/01/31 11:19:24;;;;;;;11.60;5.93;;;;;;;3.13;88.45;99018.78;5044747;28;20037;-69
2023/01/31 11:21:51;;;;;;;21.02;8.15;;;;;;;3.01;88.61;99021.97;5046897;28;20045;-70
2023/01/31 11:24:21;;;;;;;18.77;6.80;;;;;;;2.96;89.36;99003.31;5048640;28;20413;-69
2023/01/31 11:26:54;;;;;;;18.73;7.07;;;;;;;3.11;89.21;98997.88;5043673;28;20518;-70
2023/01/31 11:29:28;;;;;;;20.20;7.90;;;;;;;2.93;90.42;98987.06;5048141;28;20421;-70
2023/01/31 11:31:55;;;;;;;13.82;5.90;;;;;;;2.95;90.28;98969.22;5029217;28;20400;-70
2023/01/31 11:34:26;;;;;;;18.55;7.15;;;;;;;2.92;90.42;98941.44;5021155;28;20033;-70
2023/01/31 11:36:51;;;;;;;23.92;9.23;;;;;;;2.85;91.44;98939.78;5038205;28;20575;-70
2023/01/31 11:39:32;;;;;;;17.73;8.13;;;;;;;2.96;91.58;98947.94;5045560;28;20111;-71
2023/01/31 11:42:27;;;;;;;21.25;9.15;;;;;;;3.01;91.11;98944.72;5045472;28;20052;-70
2023/01/31 11:44:59;;;;;;;14.82;6.78;;;;;;;3.09;91.44;98935.81;5030844;28;20106;-69
2023/01/31 11:47:43;;;;;;;20.23;7.03;;;;;;;2.94;92.02;98923.59;5044610;28;20036;-69
2023/01/31 11:50:23;;;;;;;16.98;7.60;;;;;;;3.00;92.11;98929.91;5047028;28;20074;-70
2023/01/31 11:52:57;;;;;;;11.80;5.35;;;;;;;2.93;91.74;98927.25;5039527;28;20030;-70
2023/01/31 11:55:23;;;;;;;14.60;7.63;;;;;;;3.02;91.80;98920.78;5043706;28;20069;-70